sensor_id;sensor_type;location;lat;lon;timestamp;pressure;altitude;pressure_sealevel;temperature
68440;BMP180;55421;51.600;5.718;2023-05-10T00:01:34;166413.00;;;14.30
68440;BMP180;55421;51.600;5.718;2023-05-10T00:04:01;166402.20;;;14.30
68440;BMP180;55421;51.600;5.718;2023-05-10T00:06:27;166392.41;;;14.30
68440;BMP180;55421;51.600;5.718;2023-05-10T00:08:54;166376.00;;;14.20
68440;BMP180;55421;51.600;5.718;2023-05-10T00:11:20;166359.59;;;14.20
68440;BMP180;55421;51.600;5.718;2023-05-10T00:13:47;166346.00;;;14.16
68440;BMP180;55421;51.600;5.718;2023-05-10T00:16:13;166336.41;;;14.14
68440;BMP180;55421;51.600;5.718;2023-05-10T00:18:40;166330.00;;;14.10
68440;BMP180;55421;51.600;5.718;2023-05-10T00:21:06;166321.59;;;14.10
68440;BMP180;55421;51.600;5.718;2023-05-10T00:23:33;166314.80;;;14.10
68440;BMP180;55421;51.600;5.718;2023-05-10T00:26:00;166300.41;;;14.06
68440;BMP180;55421;51.600;5.718;2023-05-10T00:28:27;166293.20;;;14.00
68440;BMP180;55421;51.600;5.718;2023-05-10T00:30:55;166284.80;;;14.00
68440;BMP180;55421;51.600;5.718;2023-05-10T00:33:22;166287.59;;;14.00
68440;BMP180;55421;51.600;5.718;2023-05-10T00:35:48;166277.59;;;14.00
68440;BMP180;55421;51.600;5.718;2023-05-10T00:38:15;166269.20;;;14.00
68440;BMP180;55421;51.600;5.718;2023-05-10T00:40:41;166261.00;;;13.98
68440;BMP180;55421;51.600;5.718;2023-05-10T00:43:08;166253.00;;;13.90
68440;BMP180;55421;51.600;5.718;2023-05-10T00:45:37;166228.20;;;13.90
68440;BMP180;55421;51.600;5.718;2023-05-10T00:48:06;166217.80;;;13.90
68440;BMP180;55421;51.600;5.718;2023-05-10T00:50:33;166216.59;;;13.90
68440;BMP180;55421;51.600;5.718;2023-05-10T00:53:01;166214.20;;;13.90
68440;BMP180;55421;51.600;5.718;2023-05-10T00:55:28;166208.20;;;13.80
68440;BMP180;55421;51.600;5.718;2023-05-10T00:57:56;166205.80;;;13.80
68440;BMP180;55421;51.600;5.718;2023-05-10T01:00:23;166209.41;;;13.82
68440;BMP180;55421;51.600;5.718;2023-05-10T01:02:49;166208.20;;;13.80
68440;BMP180;55421;51.600;5.718;2023-05-10T01:05:16;166198.59;;;13.80
68440;BMP180;55421;51.600;5.718;2023-05-10T01:07:43;166199.00;;;13.80
68440;BMP180;55421;51.600;5.718;2023-05-10T01:10:09;166197.41;;;13.80
68440;BMP180;55421;51.600;5.718;2023-05-10T01:12:40;166195.00;;;13.80
68440;BMP180;55421;51.600;5.718;2023-05-10T01:15:09;166189.41;;;13.80
68440;BMP180;55421;51.600;5.718;2023-05-10T01:17:40;166186.59;;;13.80
68440;BMP180;55421;51.600;5.718;2023-05-10T01:20:09;166194.59;;;13.80
68440;BMP180;55421;51.600;5.718;2023-05-10T01:29:14;166192.20;;;13.80
68440;BMP180;55421;51.600;5.718;2023-05-10T01:35:26;166189.41;;;13.80
68440;BMP180;55421;51.600;5.718;2023-05-10T01:37:33;166195.41;;;13.80
68440;BMP180;55421;51.600;5.718;2023-05-10T01:44:02;166214.20;;;13.84
68440;BMP180;55421;51.600;5.718;2023-05-10T01:46:37;166215.41;;;13.88
68440;BMP180;55421;51.600;5.718;2023-05-10T01:49:21;166215.41;;;13.90
68440;BMP180;55421;51.600;5.718;2023-05-10T01:51:54;166223.80;;;13.90
68440;BMP180;55421;51.600;5.718;2023-05-10T01:54:25;166222.20;;;13.90
68440;BMP180;55421;51.600;5.718;2023-05-10T01:57:03;166214.20;;;13.90
68440;BMP180;55421;51.600;5.718;2023-05-10T01:59:35;166211.80;;;13.88
68440;BMP180;55421;51.600;5.718;2023-05-10T02:02:05;166211.80;;;13.90
68440;BMP180;55421;51.600;5.718;2023-05-10T02:04:35;166215.41;;;13.90
68440;BMP180;55421;51.600;5.718;2023-05-10T02:07:06;166210.59;;;13.90
68440;BMP180;55421;51.600;5.718;2023-05-10T02:09:34;166201.00;;;13.80
68440;BMP180;55421;51.600;5.718;2023-05-10T02:12:05;166193.00;;;13.80
68440;BMP180;55421;51.600;5.718;2023-05-10T02:14:36;166175.41;;;13.80
68440;BMP180;55421;51.600;5.718;2023-05-10T02:17:05;166156.20;;;13.70
68440;BMP180;55421;51.600;5.718;2023-05-10T02:19:38;166146.00;;;13.70
68440;BMP180;55421;51.600;5.718;2023-05-10T02:22:06;166124.80;;;13.64
68440;BMP180;55421;51.600;5.718;2023-05-10T02:24:36;166113.59;;;13.60
68440;BMP180;55421;51.600;5.718;2023-05-10T02:27:04;166109.20;;;13.60
68440;BMP180;55421;51.600;5.718;2023-05-10T02:29:33;166085.59;;;13.60
68440;BMP180;55421;51.600;5.718;2023-05-10T02:32:02;166089.20;;;13.60
68440;BMP180;55421;51.600;5.718;2023-05-10T02:34:29;166077.59;;;13.50
68440;BMP180;55421;51.600;5.718;2023-05-10T02:36:58;166060.80;;;13.50
68440;BMP180;55421;51.600;5.718;2023-05-10T02:39:27;166057.20;;;13.50
68440;BMP180;55421;51.600;5.718;2023-05-10T02:41:57;166059.20;;;13.50
68440;BMP180;55421;51.600;5.718;2023-05-10T02:44:28;166058.00;;;13.50
68440;BMP180;55421;51.600;5.718;2023-05-10T02:46:58;166051.20;;;13.50
68440;BMP180;55421;51.600;5.718;2023-05-10T02:49:26;166056.00;;;13.50
68440;BMP180;55421;51.600;5.718;2023-05-10T02:52:00;166059.20;;;13.50
68440;BMP180;55421;51.600;5.718;2023-05-10T02:54:33;166061.20;;;13.50
68440;BMP180;55421;51.600;5.718;2023-05-10T02:57:05;166062.41;;;13.50
68440;BMP180;55421;51.600;5.718;2023-05-10T02:59:32;166074.41;;;13.50
68440;BMP180;55421;51.600;5.718;2023-05-10T03:01:59;166068.41;;;13.50
68440;BMP180;55421;51.600;5.718;2023-05-10T03:04:26;166079.59;;;13.50
68440;BMP180;55421;51.600;5.718;2023-05-10T03:06:53;166090.41;;;13.60
68440;BMP180;55421;51.600;5.718;2023-05-10T03:09:20;166080.80;;;13.58
68440;BMP180;55421;51.600;5.718;2023-05-10T03:12:04;166077.20;;;13.52
68440;BMP180;55421;51.600;5.718;2023-05-10T03:15:00;166077.20;;;13.50
68440;BMP180;55421;51.600;5.718;2023-05-10T03:17:44;166089.20;;;13.58
68440;BMP180;55421;51.600;5.718;2023-05-10T03:20:26;166101.20;;;13.60
68440;BMP180;55421;51.600;5.718;2023-05-10T03:23:05;166096.41;;;13.60
68440;BMP180;55421;51.600;5.718;2023-05-10T03:25:34;166108.00;;;13.60
68440;BMP180;55421;51.600;5.718;2023-05-10T03:28:03;166114.41;;;13.60
68440;BMP180;55421;51.600;5.718;2023-05-10T03:30:32;166123.59;;;13.66
68440;BMP180;55421;51.600;5.718;2023-05-10T03:33:05;166124.80;;;13.66
68440;BMP180;55421;51.600;5.718;2023-05-10T03:35:32;166135.59;;;13.70
68440;BMP180;55421;51.600;5.718;2023-05-10T03:37:59;166137.20;;;13.70
68440;BMP180;55421;51.600;5.718;2023-05-10T03:40:27;166146.00;;;13.70
68440;BMP180;55421;51.600;5.718;2023-05-10T03:42:55;166143.59;;;13.70
68440;BMP180;55421;51.600;5.718;2023-05-10T03:45:21;166132.80;;;13.70
68440;BMP180;55421;51.600;5.718;2023-05-10T03:47:48;166126.80;;;13.68
68440;BMP180;55421;51.600;5.718;2023-05-10T03:50:14;166126.00;;;13.64
68440;BMP180;55421;51.600;5.718;2023-05-10T03:52:41;166124.80;;;13.66
68440;BMP180;55421;51.600;5.718;2023-05-10T03:55:08;166123.20;;;13.66
68440;BMP180;55421;51.600;5.718;2023-05-10T03:57:34;166124.41;;;13.66
68440;BMP180;55421;51.600;5.718;2023-05-10T04:00:03;166123.59;;;13.66
68440;BMP180;55421;51.600;5.718;2023-05-10T04:02:30;166126.41;;;13.70
68440;BMP180;55421;51.600;5.718;2023-05-10T04:04:56;166123.59;;;13.64
68440;BMP180;55421;51.600;5.718;2023-05-10T04:07:23;166124.80;;;13.68
68440;BMP180;55421;51.600;5.718;2023-05-10T04:09:50;166123.20;;;13.66
68440;BMP180;55421;51.600;5.718;2023-05-10T04:12:16;166122.00;;;13.60
68440;BMP180;55421;51.600;5.718;2023-05-10T04:14:43;166123.20;;;13.64
68440;BMP180;55421;51.600;5.718;2023-05-10T04:17:10;166124.80;;;13.60
68440;BMP180;55421;51.600;5.718;2023-05-10T04:19:36;166127.59;;;13.70
68440;BMP180;55421;51.600;5.718;2023-05-10T04:22:03;166132.00;;;13.70
68440;BMP180;55421;51.600;5.718;2023-05-10T04:24:30;166133.59;;;13.70
68440;BMP180;55421;51.600;5.718;2023-05-10T04:26:56;166133.20;;;13.70
68440;BMP180;55421;51.600;5.718;2023-05-10T04:29:23;166134.41;;;13.70
68440;BMP180;55421;51.600;5.718;2023-05-10T04:31:50;166120.00;;;13.62
68440;BMP180;55421;51.600;5.718;2023-05-10T04:34:17;166113.59;;;13.60
68440;BMP180;55421;51.600;5.718;2023-05-10T04:36:43;166104.80;;;13.60
68440;BMP180;55421;51.600;5.718;2023-05-10T04:39:10;166116.80;;;13.60
68440;BMP180;55421;51.600;5.718;2023-05-10T04:41:37;166128.80;;;13.68
68440;BMP180;55421;51.600;5.718;2023-05-10T04:44:04;166126.80;;;13.64
68440;BMP180;55421;51.600;5.718;2023-05-10T04:46:31;166113.59;;;13.60
68440;BMP180;55421;51.600;5.718;2023-05-10T04:48:58;166114.80;;;13.60
68440;BMP180;55421;51.600;5.718;2023-05-10T04:51:26;166107.20;;;13.60
68440;BMP180;55421;51.600;5.718;2023-05-10T04:53:53;166103.59;;;13.60
68440;BMP180;55421;51.600;5.718;2023-05-10T04:56:19;166100.00;;;13.60
68440;BMP180;55421;51.600;5.718;2023-05-10T04:58:46;166095.20;;;13.60
68440;BMP180;55421;51.600;5.718;2023-05-10T05:01:12;166095.20;;;13.60
68440;BMP180;55421;51.600;5.718;2023-05-10T05:03:39;166090.41;;;13.58
68440;BMP180;55421;51.600;5.718;2023-05-10T05:06:05;166092.80;;;13.60
68440;BMP180;55421;51.600;5.718;2023-05-10T05:08:32;166084.41;;;13.60
68440;BMP180;55421;51.600;5.718;2023-05-10T05:10:59;166073.59;;;13.50
68440;BMP180;55421;51.600;5.718;2023-05-10T05:13:25;166065.20;;;13.50
68440;BMP180;55421;51.600;5.718;2023-05-10T05:15:52;166041.59;;;13.50
68440;BMP180;55421;51.600;5.718;2023-05-10T05:18:19;166009.20;;;13.40
68440;BMP180;55421;51.600;5.718;2023-05-10T05:20:46;165981.41;;;13.30
68440;BMP180;55421;51.600;5.718;2023-05-10T05:23:12;165955.80;;;13.20
68440;BMP180;55421;51.600;5.718;2023-05-10T05:25:39;165935.41;;;13.20
68440;BMP180;55421;51.600;5.718;2023-05-10T05:28:05;165909.00;;;13.14
68440;BMP180;55421;51.600;5.718;2023-05-10T05:30:32;165904.59;;;13.10
68440;BMP180;55421;51.600;5.718;2023-05-10T05:32:58;165903.41;;;13.10
68440;BMP180;55421;51.600;5.718;2023-05-10T05:35:25;165898.00;;;13.10
68440;BMP180;55421;51.600;5.718;2023-05-10T05:37:51;165882.80;;;13.10
68440;BMP180;55421;51.600;5.718;2023-05-10T05:40:18;165884.00;;;13.10
68440;BMP180;55421;51.600;5.718;2023-05-10T05:42:44;165879.20;;;13.10
68440;BMP180;55421;51.600;5.718;2023-05-10T05:45:11;165886.41;;;13.10
68440;BMP180;55421;51.600;5.718;2023-05-10T05:47:39;165892.20;;;13.10
68440;BMP180;55421;51.600;5.718;2023-05-10T05:50:06;165900.80;;;13.12
68440;BMP180;55421;51.600;5.718;2023-05-10T05:52:33;165919.00;;;13.20
68440;BMP180;55421;51.600;5.718;2023-05-10T05:54:59;165944.20;;;13.20
68440;BMP180;55421;51.600;5.718;2023-05-10T05:57:26;165949.00;;;13.20
68440;BMP180;55421;51.600;5.718;2023-05-10T05:59:52;165963.80;;;13.28
68440;BMP180;55421;51.600;5.718;2023-05-10T06:02:19;165968.20;;;13.30
68440;BMP180;55421;51.600;5.718;2023-05-10T06:04:45;165967.80;;;13.30
68440;BMP180;55421;51.600;5.718;2023-05-10T06:07:12;165983.80;;;13.30
68440;BMP180;55421;51.600;5.718;2023-05-10T06:09:39;165994.20;;;13.32
68440;BMP180;55421;51.600;5.718;2023-05-10T06:12:05;166018.00;;;13.40
68440;BMP180;55421;51.600;5.718;2023-05-10T06:14:32;166039.59;;;13.48
68440;BMP180;55421;51.600;5.718;2023-05-10T06:16:58;166053.20;;;13.50
68440;BMP180;55421;51.600;5.718;2023-05-10T06:19:26;166063.59;;;13.50
68440;BMP180;55421;51.600;5.718;2023-05-10T06:21:53;166068.00;;;13.50
68440;BMP180;55421;51.600;5.718;2023-05-10T06:24:19;166088.00;;;13.58
68440;BMP180;55421;51.600;5.718;2023-05-10T06:26:47;166120.00;;;13.60
68440;BMP180;55421;51.600;5.718;2023-05-10T06:29:16;166148.41;;;13.70
68440;BMP180;55421;51.600;5.718;2023-05-10T06:31:42;166180.59;;;13.80
68440;BMP180;55421;51.600;5.718;2023-05-10T06:34:09;166210.59;;;13.84
68440;BMP180;55421;51.600;5.718;2023-05-10T06:36:36;166247.00;;;13.90
68440;BMP180;55421;51.600;5.718;2023-05-10T06:39:02;166277.59;;;14.00
68440;BMP180;55421;51.600;5.718;2023-05-10T06:41:29;166286.41;;;14.00
68440;BMP180;55421;51.600;5.718;2023-05-10T06:43:55;166298.00;;;14.02
68440;BMP180;55421;51.600;5.718;2023-05-10T06:46:22;166298.00;;;14.06
68440;BMP180;55421;51.600;5.718;2023-05-10T06:48:48;166295.59;;;14.02
68440;BMP180;55421;51.600;5.718;2023-05-10T06:51:15;166281.20;;;14.00
68440;BMP180;55421;51.600;5.718;2023-05-10T06:53:42;166268.41;;;14.00
68440;BMP180;55421;51.600;5.718;2023-05-10T06:56:08;166264.00;;;14.00
68440;BMP180;55421;51.600;5.718;2023-05-10T06:58:35;166257.41;;;13.92
68440;BMP180;55421;51.600;5.718;2023-05-10T07:01:03;166251.80;;;13.90
68440;BMP180;55421;51.600;5.718;2023-05-10T07:03:31;166255.41;;;13.92
68440;BMP180;55421;51.600;5.718;2023-05-10T07:06:02;166271.59;;;14.00
68440;BMP180;55421;51.600;5.718;2023-05-10T07:08:33;166274.41;;;14.00
68440;BMP180;55421;51.600;5.718;2023-05-10T07:11:04;166268.00;;;14.00
68440;BMP180;55421;51.600;5.718;2023-05-10T07:13:31;166264.00;;;14.00
68440;BMP180;55421;51.600;5.718;2023-05-10T07:15:59;166259.80;;;14.00
68440;BMP180;55421;51.600;5.718;2023-05-10T07:18:26;166256.41;;;13.92
68440;BMP180;55421;51.600;5.718;2023-05-10T07:20:53;166267.20;;;14.00
68440;BMP180;55421;51.600;5.718;2023-05-10T07:23:19;166272.00;;;14.00
68440;BMP180;55421;51.600;5.718;2023-05-10T07:26:07;166285.20;;;14.00
68440;BMP180;55421;51.600;5.718;2023-05-10T07:28:33;166284.80;;;14.00
68440;BMP180;55421;51.600;5.718;2023-05-10T07:31:00;166301.59;;;14.04
68440;BMP180;55421;51.600;5.718;2023-05-10T07:33:27;166306.41;;;14.10
68440;BMP180;55421;51.600;5.718;2023-05-10T07:35:53;166305.20;;;14.10
68440;BMP180;55421;51.600;5.718;2023-05-10T07:38:19;166304.00;;;14.08
68440;BMP180;55421;51.600;5.718;2023-05-10T07:40:46;166304.00;;;14.08
68440;BMP180;55421;51.600;5.718;2023-05-10T07:43:12;166299.20;;;14.00
68440;BMP180;55421;51.600;5.718;2023-05-10T07:45:39;166302.80;;;14.08
68440;BMP180;55421;51.600;5.718;2023-05-10T07:48:05;166304.00;;;14.10
68440;BMP180;55421;51.600;5.718;2023-05-10T07:50:32;166314.41;;;14.10
68440;BMP180;55421;51.600;5.718;2023-05-10T07:55:34;166344.00;;;14.18
68440;BMP180;55421;51.600;5.718;2023-05-10T07:58:01;166342.00;;;14.10
68440;BMP180;55421;51.600;5.718;2023-05-10T08:00:29;166334.00;;;14.10
68440;BMP180;55421;51.600;5.718;2023-05-10T08:02:55;166324.41;;;14.10
68440;BMP180;55421;51.600;5.718;2023-05-10T08:05:22;166316.41;;;14.10
68440;BMP180;55421;51.600;5.718;2023-05-10T08:07:49;166305.20;;;14.10
68440;BMP180;55421;51.600;5.718;2023-05-10T08:10:15;166296.80;;;14.02
68440;BMP180;55421;51.600;5.718;2023-05-10T08:12:43;166273.59;;;14.00
68440;BMP180;55421;51.600;5.718;2023-05-10T08:15:10;166254.20;;;13.90
68440;BMP180;55421;51.600;5.718;2023-05-10T08:17:36;166249.41;;;13.90
68440;BMP180;55421;51.600;5.718;2023-05-10T08:20:04;166247.00;;;13.90
68440;BMP180;55421;51.600;5.718;2023-05-10T08:22:30;166248.20;;;13.90
68440;BMP180;55421;51.600;5.718;2023-05-10T08:24:57;166245.80;;;13.90
68440;BMP180;55421;51.600;5.718;2023-05-10T08:27:23;166249.41;;;13.90
68440;BMP180;55421;51.600;5.718;2023-05-10T08:29:50;166254.20;;;13.90
68440;BMP180;55421;51.600;5.718;2023-05-10T08:32:17;166266.41;;;14.00
68440;BMP180;55421;51.600;5.718;2023-05-10T08:34:44;166285.59;;;14.00
68440;BMP180;55421;51.600;5.718;2023-05-10T08:37:10;166315.20;;;14.10
68440;BMP180;55421;51.600;5.718;2023-05-10T08:39:39;166354.41;;;14.20
68440;BMP180;55421;51.600;5.718;2023-05-10T08:42:06;166375.20;;;14.20
68440;BMP180;55421;51.600;5.718;2023-05-10T08:44:36;166406.20;;;14.30
68440;BMP180;55421;51.600;5.718;2023-05-10T08:47:05;166452.59;;;14.40
68440;BMP180;55421;51.600;5.718;2023-05-10T08:49:36;166491.80;;;14.50
68440;BMP180;55421;51.600;5.718;2023-05-10T08:52:05;166518.00;;;14.60
68440;BMP180;55421;51.600;5.718;2023-05-10T08:54:33;166535.59;;;14.60
68440;BMP180;55421;51.600;5.718;2023-05-10T08:57:00;166533.20;;;14.60
68440;BMP180;55421;51.600;5.718;2023-05-10T08:59:28;166522.41;;;14.60
68440;BMP180;55421;51.600;5.718;2023-05-10T09:01:57;166515.00;;;14.50
68440;BMP180;55421;51.600;5.718;2023-05-10T09:04:25;166525.59;;;14.60
68440;BMP180;55421;51.600;5.718;2023-05-10T09:06:52;166555.20;;;14.62
68440;BMP180;55421;51.600;5.718;2023-05-10T09:09:20;166581.59;;;14.70
68440;BMP180;55421;51.600;5.718;2023-05-10T09:11:47;166579.20;;;14.70
68440;BMP180;55421;51.600;5.718;2023-05-10T09:14:15;166581.59;;;14.70
68440;BMP180;55421;51.600;5.718;2023-05-10T09:16:42;166605.59;;;14.80
68440;BMP180;55421;51.600;5.718;2023-05-10T09:19:09;166609.20;;;14.80
68440;BMP180;55421;51.600;5.718;2023-05-10T09:21:36;166632.00;;;14.80
68440;BMP180;55421;51.600;5.718;2023-05-10T09:24:06;166639.59;;;14.80
68440;BMP180;55421;51.600;5.718;2023-05-10T09:26:35;166649.59;;;14.90
68440;BMP180;55421;51.600;5.718;2023-05-10T09:29:03;166649.59;;;14.90
68440;BMP180;55421;51.600;5.718;2023-05-10T09:31:50;166653.59;;;14.90
68440;BMP180;55421;51.600;5.718;2023-05-10T09:34:20;166665.00;;;14.90
68440;BMP180;55421;51.600;5.718;2023-05-10T09:36:52;166672.20;;;14.90
68440;BMP180;55421;51.600;5.718;2023-05-10T09:39:19;166685.41;;;14.94
68440;BMP180;55421;51.600;5.718;2023-05-10T09:41:47;166690.59;;;15.00
68440;BMP180;55421;51.600;5.718;2023-05-10T09:44:17;166689.41;;;15.00
68440;BMP180;55421;51.600;5.718;2023-05-10T09:46:49;166697.80;;;15.00
68440;BMP180;55421;51.600;5.718;2023-05-10T09:49:17;166724.59;;;15.02
68440;BMP180;55421;51.600;5.718;2023-05-10T09:51:43;166749.80;;;15.10
68440;BMP180;55421;51.600;5.718;2023-05-10T09:56:38;166786.00;;;15.20
68440;BMP180;55421;51.600;5.718;2023-05-10T09:59:10;166796.00;;;15.20
68440;BMP180;55421;51.600;5.718;2023-05-10T10:01:38;166816.80;;;15.26
68440;BMP180;55421;51.600;5.718;2023-05-10T10:04:06;166836.00;;;15.30
68440;BMP180;55421;51.600;5.718;2023-05-10T10:06:38;166844.41;;;15.30
68440;BMP180;55421;51.600;5.718;2023-05-10T10:09:07;166858.80;;;15.30
68440;BMP180;55421;51.600;5.718;2023-05-10T10:11:35;166868.41;;;15.40
68440;BMP180;55421;51.600;5.718;2023-05-10T10:14:02;166872.00;;;15.40
68440;BMP180;55421;51.600;5.718;2023-05-10T10:16:30;166888.00;;;15.40
68440;BMP180;55421;51.600;5.718;2023-05-10T10:18:57;166905.80;;;15.48
68440;BMP180;55421;51.600;5.718;2023-05-10T10:21:24;166923.00;;;15.50
68440;BMP180;55421;51.600;5.718;2023-05-10T10:23:51;166953.00;;;15.58
68440;BMP180;55421;51.600;5.718;2023-05-10T10:26:18;166980.20;;;15.60
68440;BMP180;55421;51.600;5.718;2023-05-10T10:29:04;166999.41;;;15.70
68440;BMP180;55421;51.600;5.718;2023-05-10T10:31:43;167029.20;;;15.76
68440;BMP180;55421;51.600;5.718;2023-05-10T10:34:26;167072.00;;;15.80
68440;BMP180;55421;51.600;5.718;2023-05-10T10:36:55;167099.59;;;15.90
68440;BMP180;55421;51.600;5.718;2023-05-10T10:39:24;167132.41;;;16.00
68440;BMP180;55421;51.600;5.718;2023-05-10T10:41:54;167183.80;;;16.10
68440;BMP180;55421;51.600;5.718;2023-05-10T10:52:28;167337.41;;;16.50
68440;BMP180;55421;51.600;5.718;2023-05-10T10:55:17;167255.00;;;16.54
68440;BMP180;55421;51.600;5.718;2023-05-10T10:57:56;167362.80;;;16.50
68440;BMP180;55421;51.600;5.718;2023-05-10T11:00:36;167363.59;;;16.50
68440;BMP180;55421;51.600;5.718;2023-05-10T11:03:12;167388.80;;;16.60
68440;BMP180;55421;51.600;5.718;2023-05-10T11:05:57;167424.59;;;16.66
68440;BMP180;55421;51.600;5.718;2023-05-10T11:08:28;167363.00;;;16.70
68440;BMP180;55421;51.600;5.718;2023-05-10T11:13:38;166675.59;;;16.80
68440;BMP180;55421;51.600;5.718;2023-05-10T11:16:19;165199.80;;;16.78
68440;BMP180;55421;51.600;5.718;2023-05-10T11:18:59;163560.59;;;16.66
68440;BMP180;55421;51.600;5.718;2023-05-10T11:21:29;161735.59;;;16.50
68440;BMP180;55421;51.600;5.718;2023-05-10T11:23:59;161862.20;;;16.36
68440;BMP180;55421;51.600;5.718;2023-05-10T11:26:33;162167.20;;;16.20
68440;BMP180;55421;51.600;5.718;2023-05-10T11:29:00;163941.80;;;16.10
68440;BMP180;55421;51.600;5.718;2023-05-10T11:31:28;165628.41;;;16.00
68440;BMP180;55421;51.600;5.718;2023-05-10T11:33:58;166170.80;;;16.00
68440;BMP180;55421;51.600;5.718;2023-05-10T11:36:27;166069.00;;;15.92
68440;BMP180;55421;51.600;5.718;2023-05-10T11:38:56;166039.00;;;15.90
68440;BMP180;55421;51.600;5.718;2023-05-10T11:41:24;166718.41;;;15.80
68440;BMP180;55421;51.600;5.718;2023-05-10T11:43:55;167029.20;;;15.78
68440;BMP180;55421;51.600;5.718;2023-05-10T11:46:25;167000.59;;;15.70
68440;BMP180;55421;51.600;5.718;2023-05-10T11:48:58;166963.41;;;15.60
68440;BMP180;55421;51.600;5.718;2023-05-10T11:51:27;166954.20;;;15.60
68440;BMP180;55421;51.600;5.718;2023-05-10T11:53:56;166914.59;;;15.50
68440;BMP180;55421;51.600;5.718;2023-05-10T11:56:23;166927.80;;;15.50
68440;BMP180;55421;51.600;5.718;2023-05-10T11:58:57;166968.20;;;15.60
68440;BMP180;55421;51.600;5.718;2023-05-10T12:01:26;166997.00;;;15.70
68440;BMP180;55421;51.600;5.718;2023-05-10T12:03:55;167020.00;;;15.70
68440;BMP180;55421;51.600;5.718;2023-05-10T12:06:30;167052.00;;;15.80
68440;BMP180;55421;51.600;5.718;2023-05-10T12:08:58;167073.20;;;15.90
68440;BMP180;55421;51.600;5.718;2023-05-10T12:11:28;167102.00;;;15.90
68440;BMP180;55421;51.600;5.718;2023-05-10T12:13:55;167132.41;;;16.00
68440;BMP180;55421;51.600;5.718;2023-05-10T12:16:25;167138.41;;;16.00
68440;BMP180;55421;51.600;5.718;2023-05-10T12:18:57;167125.20;;;16.00
68440;BMP180;55421;51.600;5.718;2023-05-10T12:21:24;167115.20;;;15.92
68440;BMP180;55421;51.600;5.718;2023-05-10T12:23:53;167105.20;;;15.90
68440;BMP180;55421;51.600;5.718;2023-05-10T12:26:24;167110.80;;;15.92
68440;BMP180;55421;51.600;5.718;2023-05-10T12:28:53;167130.00;;;16.00
68440;BMP180;55421;51.600;5.718;2023-05-10T12:31:20;167146.80;;;16.00
68440;BMP180;55421;51.600;5.718;2023-05-10T12:33:47;167161.41;;;16.02
68440;BMP180;55421;51.600;5.718;2023-05-10T12:36:16;167179.41;;;16.10
68440;BMP180;55421;51.600;5.718;2023-05-10T12:38:44;167202.20;;;16.12
68440;BMP180;55421;51.600;5.718;2023-05-10T12:41:17;167217.41;;;16.20
68440;BMP180;55421;51.600;5.718;2023-05-10T12:43:45;167234.20;;;16.20
68440;BMP180;55421;51.600;5.718;2023-05-10T12:46:17;167248.59;;;16.24
68440;BMP180;55421;51.600;5.718;2023-05-10T12:48:44;167251.41;;;16.30
68440;BMP180;55421;51.600;5.718;2023-05-10T12:51:12;167239.00;;;16.20
68440;BMP180;55421;51.600;5.718;2023-05-10T12:53:41;167228.20;;;16.20
68440;BMP180;55421;51.600;5.718;2023-05-10T12:56:08;167219.80;;;16.20
68440;BMP180;55421;51.600;5.718;2023-05-10T12:58:34;167208.20;;;16.18
68440;BMP180;55421;51.600;5.718;2023-05-10T13:01:02;167209.41;;;16.14
68440;BMP180;55421;51.600;5.718;2023-05-10T13:03:29;167224.59;;;16.20
68440;BMP180;55421;51.600;5.718;2023-05-10T13:05:55;167247.41;;;16.22
68440;BMP180;55421;51.600;5.718;2023-05-10T13:08:22;167265.00;;;16.30
68440;BMP180;55421;51.600;5.718;2023-05-10T13:10:49;167278.00;;;16.30
68440;BMP180;55421;51.600;5.718;2023-05-10T13:13:15;167265.41;;;16.30
68440;BMP180;55421;51.600;5.718;2023-05-10T13:15:42;167248.59;;;16.28
68440;BMP180;55421;51.600;5.718;2023-05-10T13:18:08;167231.80;;;16.20
68440;BMP180;55421;51.600;5.718;2023-05-10T13:20:35;167213.00;;;16.20
68440;BMP180;55421;51.600;5.718;2023-05-10T13:23:01;167201.00;;;16.18
68440;BMP180;55421;51.600;5.718;2023-05-10T13:25:28;167208.20;;;16.18
68440;BMP180;55421;51.600;5.718;2023-05-10T13:27:55;167204.20;;;16.14
68440;BMP180;55421;51.600;5.718;2023-05-10T13:30:22;167202.20;;;16.12
68440;BMP180;55421;51.600;5.718;2023-05-10T13:32:49;167202.20;;;16.16
68440;BMP180;55421;51.600;5.718;2023-05-10T13:35:16;167207.41;;;16.18
68440;BMP180;55421;51.600;5.718;2023-05-10T13:37:42;167229.41;;;16.20
68440;BMP180;55421;51.600;5.718;2023-05-10T13:40:10;167261.80;;;16.30
68440;BMP180;55421;51.600;5.718;2023-05-10T13:42:37;167294.00;;;16.36
68440;BMP180;55421;51.600;5.718;2023-05-10T13:45:04;167333.20;;;16.42
68440;BMP180;55421;51.600;5.718;2023-05-10T13:47:31;167373.20;;;16.50
68440;BMP180;55421;51.600;5.718;2023-05-10T13:49:57;167427.00;;;16.70
68440;BMP180;55421;51.600;5.718;2023-05-10T13:52:24;167501.41;;;16.80
68440;BMP180;55421;51.600;5.718;2023-05-10T13:54:51;167582.41;;;17.00
68440;BMP180;55421;51.600;5.718;2023-05-10T13:57:21;167642.00;;;17.18
68440;BMP180;55421;51.600;5.718;2023-05-10T13:59:49;167676.59;;;17.30
68440;BMP180;55421;51.600;5.718;2023-05-10T14:02:15;167711.80;;;17.30
68440;BMP180;55421;51.600;5.718;2023-05-10T14:04:42;167745.80;;;17.40
68440;BMP180;55421;51.600;5.718;2023-05-10T14:07:08;167760.20;;;17.40
68440;BMP180;55421;51.600;5.718;2023-05-10T14:09:35;167777.41;;;17.48
68440;BMP180;55421;51.600;5.718;2023-05-10T14:12:02;167818.41;;;17.60
68440;BMP180;55421;51.600;5.718;2023-05-10T14:14:29;167828.80;;;17.60
68440;BMP180;55421;51.600;5.718;2023-05-10T14:16:55;167827.59;;;17.60
68440;BMP180;55421;51.600;5.718;2023-05-10T14:19:22;167819.20;;;17.60
68440;BMP180;55421;51.600;5.718;2023-05-10T14:21:49;167795.59;;;17.50
68440;BMP180;55421;51.600;5.718;2023-05-10T14:24:16;167777.00;;;17.48
68440;BMP180;55421;51.600;5.718;2023-05-10T14:26:42;167700.00;;;17.30
68440;BMP180;55421;51.600;5.718;2023-05-10T14:29:09;167674.20;;;17.20
68440;BMP180;55421;51.600;5.718;2023-05-10T14:31:35;167636.80;;;17.16
68440;BMP180;55421;51.600;5.718;2023-05-10T14:34:02;167605.20;;;17.10